sensor_id;sensor_type;location;lat;lon;timestamp;P1;durP1;ratioP1;P2;durP2;ratioP2
13238;SDS011;6686;51.292;4.166;2023-05-27T00:02:23;16.30;;;6.70;;
13238;SDS011;6686;51.292;4.166;2023-05-27T00:05:09;12.13;;;5.70;;
13238;SDS011;6686;51.292;4.166;2023-05-27T00:07:55;12.37;;;5.50;;
13238;SDS011;6686;51.292;4.166;2023-05-27T00:10:41;13.13;;;5.03;;
13238;SDS011;6686;51.292;4.166;2023-05-27T00:13:27;13.17;;;4.73;;
13238;SDS011;6686;51.292;4.166;2023-05-27T00:16:13;16.87;;;5.23;;
13238;SDS011;6686;51.292;4.166;2023-05-27T00:18:59;12.47;;;4.73;;
13238;SDS011;6686;51.292;4.166;2023-05-27T00:21:44;12.33;;;5.27;;
13238;SDS011;6686;51.292;4.166;2023-05-27T00:24:30;13.40;;;5.20;;
13238;SDS011;6686;51.292;4.166;2023-05-27T00:27:16;11.93;;;5.17;;
13238;SDS011;6686;51.292;4.166;2023-05-27T00:30:02;15.73;;;5.10;;
13238;SDS011;6686;51.292;4.166;2023-05-27T00:32:48;14.80;;;5.27;;
13238;SDS011;6686;51.292;4.166;2023-05-27T00:35:34;12.83;;;5.13;;
13238;SDS011;6686;51.292;4.166;2023-05-27T00:38:19;13.70;;;5.37;;
13238;SDS011;6686;51.292;4.166;2023-05-27T00:41:05;13.27;;;5.27;;
13238;SDS011;6686;51.292;4.166;2023-05-27T00:43:51;12.70;;;5.00;;
13238;SDS011;6686;51.292;4.166;2023-05-27T00:46:37;11.93;;;4.90;;
13238;SDS011;6686;51.292;4.166;2023-05-27T00:49:23;9.40;;;4.67;;
13238;SDS011;6686;51.292;4.166;2023-05-27T00:52:09;12.20;;;5.07;;
13238;SDS011;6686;51.292;4.166;2023-05-27T00:54:55;14.43;;;5.68;;
13238;SDS011;6686;51.292;4.166;2023-05-27T00:57:41;14.13;;;5.07;;
13238;SDS011;6686;51.292;4.166;2023-05-27T01:00:27;14.07;;;5.30;;
13238;SDS011;6686;51.292;4.166;2023-05-27T01:03:13;11.73;;;4.70;;
13238;SDS011;6686;51.292;4.166;2023-05-27T01:09:16;12.30;;;5.03;;
13238;SDS011;6686;51.292;4.166;2023-05-27T01:12:01;13.17;;;4.37;;
13238;SDS011;6686;51.292;4.166;2023-05-27T01:14:54;12.03;;;4.70;;
13238;SDS011;6686;51.292;4.166;2023-05-27T01:17:39;10.13;;;4.60;;
13238;SDS011;6686;51.292;4.166;2023-05-27T01:20:25;8.53;;;4.20;;
13238;SDS011;6686;51.292;4.166;2023-05-27T01:23:11;15.07;;;5.27;;
13238;SDS011;6686;51.292;4.166;2023-05-27T01:25:57;12.80;;;4.83;;
13238;SDS011;6686;51.292;4.166;2023-05-27T01:28:43;13.67;;;4.53;;
13238;SDS011;6686;51.292;4.166;2023-05-27T01:31:42;17.00;;;4.90;;
13238;SDS011;6686;51.292;4.166;2023-05-27T01:34:30;13.67;;;4.90;;
13238;SDS011;6686;51.292;4.166;2023-05-27T01:37:14;16.00;;;5.40;;
13238;SDS011;6686;51.292;4.166;2023-05-27T01:39:59;9.47;;;4.57;;
13238;SDS011;6686;51.292;4.166;2023-05-27T01:42:45;13.67;;;5.13;;
13238;SDS011;6686;51.292;4.166;2023-05-27T01:45:31;11.03;;;4.50;;
13238;SDS011;6686;51.292;4.166;2023-05-27T01:48:17;9.77;;;4.83;;
13238;SDS011;6686;51.292;4.166;2023-05-27T01:51:02;13.47;;;5.23;;
13238;SDS011;6686;51.292;4.166;2023-05-27T01:53:48;15.17;;;4.87;;
13238;SDS011;6686;51.292;4.166;2023-05-27T01:56:35;11.07;;;4.47;;
13238;SDS011;6686;51.292;4.166;2023-05-27T01:59:21;13.13;;;4.30;;
13238;SDS011;6686;51.292;4.166;2023-05-27T02:02:06;11.97;;;5.43;;
13238;SDS011;6686;51.292;4.166;2023-05-27T02:04:52;13.00;;;4.80;;
13238;SDS011;6686;51.292;4.166;2023-05-27T02:07:38;15.17;;;5.00;;
13238;SDS011;6686;51.292;4.166;2023-05-27T02:10:24;11.10;;;4.50;;
13238;SDS011;6686;51.292;4.166;2023-05-27T02:13:10;13.70;;;4.87;;
13238;SDS011;6686;51.292;4.166;2023-05-27T02:15:55;14.30;;;5.20;;
13238;SDS011;6686;51.292;4.166;2023-05-27T02:18:41;15.53;;;4.77;;
13238;SDS011;6686;51.292;4.166;2023-05-27T02:21:27;11.37;;;5.03;;
13238;SDS011;6686;51.292;4.166;2023-05-27T02:24:13;12.25;;;5.40;;
13238;SDS011;6686;51.292;4.166;2023-05-27T02:26:59;11.70;;;4.50;;
13238;SDS011;6686;51.292;4.166;2023-05-27T02:29:45;9.30;;;4.30;;
13238;SDS011;6686;51.292;4.166;2023-05-27T02:32:31;13.67;;;4.93;;
13238;SDS011;6686;51.292;4.166;2023-05-27T02:35:17;13.83;;;4.87;;
13238;SDS011;6686;51.292;4.166;2023-05-27T02:38:02;9.60;;;4.00;;
13238;SDS011;6686;51.292;4.166;2023-05-27T02:40:48;13.00;;;5.32;;
13238;SDS011;6686;51.292;4.166;2023-05-27T02:43:35;12.67;;;4.57;;
13238;SDS011;6686;51.292;4.166;2023-05-27T02:46:20;9.97;;;4.23;;
13238;SDS011;6686;51.292;4.166;2023-05-27T02:49:06;10.97;;;4.50;;
13238;SDS011;6686;51.292;4.166;2023-05-27T02:51:53;9.20;;;4.13;;
13238;SDS011;6686;51.292;4.166;2023-05-27T02:54:38;8.57;;;4.30;;
13238;SDS011;6686;51.292;4.166;2023-05-27T02:57:24;9.57;;;4.43;;
13238;SDS011;6686;51.292;4.166;2023-05-27T03:00:12;13.03;;;5.10;;
13238;SDS011;6686;51.292;4.166;2023-05-27T03:02:57;8.93;;;4.13;;
13238;SDS011;6686;51.292;4.166;2023-05-27T03:05:43;12.07;;;4.87;;
13238;SDS011;6686;51.292;4.166;2023-05-27T03:08:28;9.37;;;3.83;;
13238;SDS011;6686;51.292;4.166;2023-05-27T03:11:14;10.07;;;4.33;;
13238;SDS011;6686;51.292;4.166;2023-05-27T03:14:00;16.63;;;4.87;;
13238;SDS011;6686;51.292;4.166;2023-05-27T03:16:46;12.00;;;5.07;;
13238;SDS011;6686;51.292;4.166;2023-05-27T03:19:32;13.25;;;5.28;;
13238;SDS011;6686;51.292;4.166;2023-05-27T03:22:17;12.47;;;4.43;;
13238;SDS011;6686;51.292;4.166;2023-05-27T03:25:03;11.30;;;4.07;;
13238;SDS011;6686;51.292;4.166;2023-05-27T03:27:49;14.20;;;4.77;;
13238;SDS011;6686;51.292;4.166;2023-05-27T03:30:36;11.83;;;4.40;;
13238;SDS011;6686;51.292;4.166;2023-05-27T03:33:24;9.03;;;4.40;;
13238;SDS011;6686;51.292;4.166;2023-05-27T03:36:10;11.27;;;4.90;;
13238;SDS011;6686;51.292;4.166;2023-05-27T03:38:56;12.93;;;4.40;;
13238;SDS011;6686;51.292;4.166;2023-05-27T03:41:42;14.93;;;5.43;;
13238;SDS011;6686;51.292;4.166;2023-05-27T03:44:28;12.60;;;5.30;;
13238;SDS011;6686;51.292;4.166;2023-05-27T03:47:14;12.00;;;5.00;;
13238;SDS011;6686;51.292;4.166;2023-05-27T03:50:00;12.95;;;5.37;;
13238;SDS011;6686;51.292;4.166;2023-05-27T03:52:46;11.67;;;4.67;;
13238;SDS011;6686;51.292;4.166;2023-05-27T03:55:32;11.70;;;4.47;;
13238;SDS011;6686;51.292;4.166;2023-05-27T03:58:18;10.73;;;5.20;;
13238;SDS011;6686;51.292;4.166;2023-05-27T04:01:04;12.23;;;4.80;;
13238;SDS011;6686;51.292;4.166;2023-05-27T04:03:49;11.60;;;4.80;;
13238;SDS011;6686;51.292;4.166;2023-05-27T04:06:35;15.60;;;5.23;;
13238;SDS011;6686;51.292;4.166;2023-05-27T04:09:21;10.77;;;5.13;;
13238;SDS011;6686;51.292;4.166;2023-05-27T04:12:07;10.47;;;4.83;;
13238;SDS011;6686;51.292;4.166;2023-05-27T04:14:53;12.33;;;4.83;;
13238;SDS011;6686;51.292;4.166;2023-05-27T04:17:38;9.60;;;4.57;;
13238;SDS011;6686;51.292;4.166;2023-05-27T04:20:24;12.97;;;4.80;;
13238;SDS011;6686;51.292;4.166;2023-05-27T04:23:10;9.77;;;4.20;;
13238;SDS011;6686;51.292;4.166;2023-05-27T04:25:56;13.03;;;4.77;;
13238;SDS011;6686;51.292;4.166;2023-05-27T04:28:42;12.53;;;4.50;;
13238;SDS011;6686;51.292;4.166;2023-05-27T04:31:27;13.23;;;4.83;;
13238;SDS011;6686;51.292;4.166;2023-05-27T04:34:14;16.23;;;5.20;;
13238;SDS011;6686;51.292;4.166;2023-05-27T04:37:00;12.80;;;4.80;;
13238;SDS011;6686;51.292;4.166;2023-05-27T04:39:46;11.23;;;4.93;;
13238;SDS011;6686;51.292;4.166;2023-05-27T04:42:32;14.17;;;5.40;;
13238;SDS011;6686;51.292;4.166;2023-05-27T04:45:18;15.40;;;5.53;;
13238;SDS011;6686;51.292;4.166;2023-05-27T04:48:04;12.23;;;4.67;;
13238;SDS011;6686;51.292;4.166;2023-05-27T04:50:50;12.73;;;4.53;;
13238;SDS011;6686;51.292;4.166;2023-05-27T04:53:36;11.50;;;4.57;;
13238;SDS011;6686;51.292;4.166;2023-05-27T04:56:22;12.70;;;4.80;;
13238;SDS011;6686;51.292;4.166;2023-05-27T04:59:07;13.10;;;4.60;;
13238;SDS011;6686;51.292;4.166;2023-05-27T05:01:54;12.93;;;4.90;;
13238;SDS011;6686;51.292;4.166;2023-05-27T05:04:55;11.23;;;4.33;;
13238;SDS011;6686;51.292;4.166;2023-05-27T05:07:41;9.27;;;4.37;;
13238;SDS011;6686;51.292;4.166;2023-05-27T05:10:28;8.50;;;4.47;;
13238;SDS011;6686;51.292;4.166;2023-05-27T05:13:13;15.07;;;5.37;;
13238;SDS011;6686;51.292;4.166;2023-05-27T05:15:59;10.97;;;4.67;;
13238;SDS011;6686;51.292;4.166;2023-05-27T05:18:44;13.50;;;4.80;;
13238;SDS011;6686;51.292;4.166;2023-05-27T05:21:30;14.60;;;5.50;;
13238;SDS011;6686;51.292;4.166;2023-05-27T05:24:17;12.30;;;4.63;;
13238;SDS011;6686;51.292;4.166;2023-05-27T05:27:02;13.20;;;4.53;;
13238;SDS011;6686;51.292;4.166;2023-05-27T05:29:48;13.63;;;4.70;;
13238;SDS011;6686;51.292;4.166;2023-05-27T05:32:34;11.03;;;5.20;;
13238;SDS011;6686;51.292;4.166;2023-05-27T05:35:20;11.47;;;4.97;;
13238;SDS011;6686;51.292;4.166;2023-05-27T05:38:06;11.03;;;4.90;;
13238;SDS011;6686;51.292;4.166;2023-05-27T05:40:52;13.10;;;5.03;;
13238;SDS011;6686;51.292;4.166;2023-05-27T05:43:38;12.70;;;5.07;;
13238;SDS011;6686;51.292;4.166;2023-05-27T05:46:24;12.97;;;5.20;;
13238;SDS011;6686;51.292;4.166;2023-05-27T05:49:09;11.00;;;5.33;;
13238;SDS011;6686;51.292;4.166;2023-05-27T05:51:55;11.87;;;4.67;;
13238;SDS011;6686;51.292;4.166;2023-05-27T05:54:41;16.90;;;5.03;;
13238;SDS011;6686;51.292;4.166;2023-05-27T05:57:27;15.97;;;5.27;;
13238;SDS011;6686;51.292;4.166;2023-05-27T06:00:13;12.70;;;4.87;;
13238;SDS011;6686;51.292;4.166;2023-05-27T06:02:59;12.63;;;5.27;;
13238;SDS011;6686;51.292;4.166;2023-05-27T06:05:45;12.87;;;5.10;;
13238;SDS011;6686;51.292;4.166;2023-05-27T06:08:30;11.23;;;5.20;;
13238;SDS011;6686;51.292;4.166;2023-05-27T06:11:16;10.95;;;5.40;;
13238;SDS011;6686;51.292;4.166;2023-05-27T06:14:02;13.10;;;5.43;;
13238;SDS011;6686;51.292;4.166;2023-05-27T06:16:48;10.27;;;5.00;;
13238;SDS011;6686;51.292;4.166;2023-05-27T06:19:34;11.17;;;5.83;;
13238;SDS011;6686;51.292;4.166;2023-05-27T06:22:20;12.93;;;5.10;;
13238;SDS011;6686;51.292;4.166;2023-05-27T06:25:06;9.33;;;4.40;;
13238;SDS011;6686;51.292;4.166;2023-05-27T06:27:52;11.97;;;4.53;;
13238;SDS011;6686;51.292;4.166;2023-05-27T06:30:38;12.07;;;4.93;;
13238;SDS011;6686;51.292;4.166;2023-05-27T06:33:24;11.27;;;4.97;;
13238;SDS011;6686;51.292;4.166;2023-05-27T06:36:10;14.23;;;4.97;;
13238;SDS011;6686;51.292;4.166;2023-05-27T06:38:55;13.03;;;5.37;;
13238;SDS011;6686;51.292;4.166;2023-05-27T06:41:41;13.03;;;5.10;;
13238;SDS011;6686;51.292;4.166;2023-05-27T06:44:28;9.70;;;4.77;;
13238;SDS011;6686;51.292;4.166;2023-05-27T06:47:13;9.10;;;4.97;;
13238;SDS011;6686;51.292;4.166;2023-05-27T06:50:00;10.93;;;5.53;;
13238;SDS011;6686;51.292;4.166;2023-05-27T06:52:45;14.45;;;6.10;;
13238;SDS011;6686;51.292;4.166;2023-05-27T06:55:32;13.73;;;5.40;;
13238;SDS011;6686;51.292;4.166;2023-05-27T06:58:18;15.53;;;5.73;;
13238;SDS011;6686;51.292;4.166;2023-05-27T07:01:03;10.57;;;5.07;;
13238;SDS011;6686;51.292;4.166;2023-05-27T07:03:49;9.77;;;5.30;;
13238;SDS011;6686;51.292;4.166;2023-05-27T07:06:35;13.00;;;5.27;;
13238;SDS011;6686;51.292;4.166;2023-05-27T07:09:21;12.53;;;5.70;;
13238;SDS011;6686;51.292;4.166;2023-05-27T07:12:07;13.63;;;5.37;;
13238;SDS011;6686;51.292;4.166;2023-05-27T07:14:53;13.27;;;5.83;;
13238;SDS011;6686;51.292;4.166;2023-05-27T07:17:39;14.10;;;5.60;;
13238;SDS011;6686;51.292;4.166;2023-05-27T07:20:25;12.00;;;5.27;;
13238;SDS011;6686;51.292;4.166;2023-05-27T07:23:12;15.10;;;5.17;;
13238;SDS011;6686;51.292;4.166;2023-05-27T07:25:58;12.80;;;5.40;;
13238;SDS011;6686;51.292;4.166;2023-05-27T07:28:45;12.77;;;5.60;;
13238;SDS011;6686;51.292;4.166;2023-05-27T07:31:31;10.83;;;5.00;;
13238;SDS011;6686;51.292;4.166;2023-05-27T07:34:17;11.57;;;5.20;;
13238;SDS011;6686;51.292;4.166;2023-05-27T07:37:03;14.17;;;5.80;;
13238;SDS011;6686;51.292;4.166;2023-05-27T07:39:49;12.83;;;5.20;;
13238;SDS011;6686;51.292;4.166;2023-05-27T07:42:35;14.77;;;5.10;;
13238;SDS011;6686;51.292;4.166;2023-05-27T07:45:20;13.83;;;5.33;;
13238;SDS011;6686;51.292;4.166;2023-05-27T07:48:06;12.27;;;5.75;;
13238;SDS011;6686;51.292;4.166;2023-05-27T07:50:53;14.60;;;6.20;;
13238;SDS011;6686;51.292;4.166;2023-05-27T07:53:39;11.90;;;5.43;;
13238;SDS011;6686;51.292;4.166;2023-05-27T07:56:25;11.10;;;5.30;;
13238;SDS011;6686;51.292;4.166;2023-05-27T07:59:11;13.80;;;5.80;;
13238;SDS011;6686;51.292;4.166;2023-05-27T08:01:57;12.27;;;5.43;;
13238;SDS011;6686;51.292;4.166;2023-05-27T08:04:43;16.37;;;5.80;;
13238;SDS011;6686;51.292;4.166;2023-05-27T08:07:28;13.87;;;6.07;;
13238;SDS011;6686;51.292;4.166;2023-05-27T08:10:14;16.73;;;5.43;;
13238;SDS011;6686;51.292;4.166;2023-05-27T08:13:00;13.37;;;5.67;;
13238;SDS011;6686;51.292;4.166;2023-05-27T08:15:47;15.27;;;5.07;;
13238;SDS011;6686;51.292;4.166;2023-05-27T08:18:36;12.87;;;5.57;;
13238;SDS011;6686;51.292;4.166;2023-05-27T08:21:22;14.70;;;5.80;;
13238;SDS011;6686;51.292;4.166;2023-05-27T08:24:11;16.93;;;5.27;;
13238;SDS011;6686;51.292;4.166;2023-05-27T08:26:57;12.27;;;5.57;;
13238;SDS011;6686;51.292;4.166;2023-05-27T08:29:43;13.37;;;5.40;;
13238;SDS011;6686;51.292;4.166;2023-05-27T08:32:29;14.77;;;5.13;;
13238;SDS011;6686;51.292;4.166;2023-05-27T08:35:15;17.13;;;5.70;;
13238;SDS011;6686;51.292;4.166;2023-05-27T08:38:01;10.90;;;5.57;;
13238;SDS011;6686;51.292;4.166;2023-05-27T08:40:47;13.35;;;6.05;;
13238;SDS011;6686;51.292;4.166;2023-05-27T08:43:33;12.67;;;5.30;;
13238;SDS011;6686;51.292;4.166;2023-05-27T08:46:19;14.03;;;5.93;;
13238;SDS011;6686;51.292;4.166;2023-05-27T08:49:06;28.85;;;8.50;;
13238;SDS011;6686;51.292;4.166;2023-05-27T08:51:51;12.43;;;5.83;;
13238;SDS011;6686;51.292;4.166;2023-05-27T08:54:37;11.57;;;5.17;;
13238;SDS011;6686;51.292;4.166;2023-05-27T08:57:28;12.48;;;5.60;;
13238;SDS011;6686;51.292;4.166;2023-05-27T09:00:10;10.60;;;5.13;;
13238;SDS011;6686;51.292;4.166;2023-05-27T09:02:55;10.00;;;5.13;;
13238;SDS011;6686;51.292;4.166;2023-05-27T09:05:41;8.97;;;5.30;;
13238;SDS011;6686;51.292;4.166;2023-05-27T09:08:27;11.70;;;5.67;;
13238;SDS011;6686;51.292;4.166;2023-05-27T09:11:26;13.03;;;5.50;;
13238;SDS011;6686;51.292;4.166;2023-05-27T09:14:19;13.33;;;5.63;;
13238;SDS011;6686;51.292;4.166;2023-05-27T09:16:55;11.07;;;6.00;;
13238;SDS011;6686;51.292;4.166;2023-05-27T09:19:41;13.73;;;6.27;;
13238;SDS011;6686;51.292;4.166;2023-05-27T09:22:30;13.23;;;5.43;;
13238;SDS011;6686;51.292;4.166;2023-05-27T09:25:16;11.97;;;6.07;;
13238;SDS011;6686;51.292;4.166;2023-05-27T09:28:04;15.63;;;5.90;;
13238;SDS011;6686;51.292;4.166;2023-05-27T09:31:01;14.03;;;5.73;;
13238;SDS011;6686;51.292;4.166;2023-05-27T09:33:46;17.20;;;5.80;;
13238;SDS011;6686;51.292;4.166;2023-05-27T09:36:32;13.30;;;5.30;;
13238;SDS011;6686;51.292;4.166;2023-05-27T09:39:19;17.27;;;6.47;;
13238;SDS011;6686;51.292;4.166;2023-05-27T09:42:04;12.57;;;6.30;;
13238;SDS011;6686;51.292;4.166;2023-05-27T09:44:50;14.67;;;6.00;;
13238;SDS011;6686;51.292;4.166;2023-05-27T09:47:37;11.83;;;5.83;;
13238;SDS011;6686;51.292;4.166;2023-05-27T09:50:22;13.93;;;6.13;;
13238;SDS011;6686;51.292;4.166;2023-05-27T09:53:08;12.27;;;6.20;;
13238;SDS011;6686;51.292;4.166;2023-05-27T09:55:53;14.37;;;6.10;;
13238;SDS011;6686;51.292;4.166;2023-05-27T09:58:40;11.93;;;5.60;;
13238;SDS011;6686;51.292;4.166;2023-05-27T10:01:26;10.73;;;5.73;;
13238;SDS011;6686;51.292;4.166;2023-05-27T10:04:11;13.62;;;6.40;;
13238;SDS011;6686;51.292;4.166;2023-05-27T10:06:57;12.70;;;6.10;;
13238;SDS011;6686;51.292;4.166;2023-05-27T10:09:43;15.10;;;6.33;;
13238;SDS011;6686;51.292;4.166;2023-05-27T10:12:29;12.47;;;6.47;;
13238;SDS011;6686;51.292;4.166;2023-05-27T10:15:22;13.87;;;6.03;;
13238;SDS011;6686;51.292;4.166;2023-05-27T10:18:07;10.73;;;6.20;;
13238;SDS011;6686;51.292;4.166;2023-05-27T10:20:52;10.33;;;5.93;;
13238;SDS011;6686;51.292;4.166;2023-05-27T10:23:38;12.17;;;5.27;;
13238;SDS011;6686;51.292;4.166;2023-05-27T10:26:33;11.63;;;5.43;;
13238;SDS011;6686;51.292;4.166;2023-05-27T10:29:21;14.13;;;5.60;;
13238;SDS011;6686;51.292;4.166;2023-05-27T10:32:07;12.57;;;5.20;;
13238;SDS011;6686;51.292;4.166;2023-05-27T10:34:53;15.30;;;6.53;;
13238;SDS011;6686;51.292;4.166;2023-05-27T10:37:42;15.37;;;6.57;;
13238;SDS011;6686;51.292;4.166;2023-05-27T10:40:28;16.47;;;6.00;;
13238;SDS011;6686;51.292;4.166;2023-05-27T10:43:17;12.97;;;5.90;;
13238;SDS011;6686;51.292;4.166;2023-05-27T10:46:09;12.83;;;5.20;;
13238;SDS011;6686;51.292;4.166;2023-05-27T10:48:54;14.50;;;6.27;;
13238;SDS011;6686;51.292;4.166;2023-05-27T10:51:41;13.55;;;6.10;;
13238;SDS011;6686;51.292;4.166;2023-05-27T10:54:26;13.60;;;6.07;;
13238;SDS011;6686;51.292;4.166;2023-05-27T10:57:12;13.00;;;5.73;;
13238;SDS011;6686;51.292;4.166;2023-05-27T11:00:00;12.73;;;5.00;;
13238;SDS011;6686;51.292;4.166;2023-05-27T11:02:44;12.07;;;5.93;;
13238;SDS011;6686;51.292;4.166;2023-05-27T11:05:29;12.35;;;6.05;;
13238;SDS011;6686;51.292;4.166;2023-05-27T11:08:15;11.90;;;5.57;;
13238;SDS011;6686;51.292;4.166;2023-05-27T11:11:01;15.67;;;6.17;;
13238;SDS011;6686;51.292;4.166;2023-05-27T11:13:47;15.77;;;6.73;;
13238;SDS011;6686;51.292;4.166;2023-05-27T11:16:33;11.13;;;5.57;;
13238;SDS011;6686;51.292;4.166;2023-05-27T11:19:20;11.53;;;5.63;;
13238;SDS011;6686;51.292;4.166;2023-05-27T11:22:04;14.07;;;5.63;;
13238;SDS011;6686;51.292;4.166;2023-05-27T11:24:57;11.20;;;6.33;;
13238;SDS011;6686;51.292;4.166;2023-05-27T11:27:45;9.63;;;5.50;;
13238;SDS011;6686;51.292;4.166;2023-05-27T11:30:31;11.87;;;5.10;;
13238;SDS011;6686;51.292;4.166;2023-05-27T11:33:17;12.43;;;5.53;;
13238;SDS011;6686;51.292;4.166;2023-05-27T11:36:04;13.53;;;5.77;;
13238;SDS011;6686;51.292;4.166;2023-05-27T11:38:50;10.37;;;5.57;;
13238;SDS011;6686;51.292;4.166;2023-05-27T11:41:35;9.40;;;5.37;;
13238;SDS011;6686;51.292;4.166;2023-05-27T11:44:21;11.50;;;5.57;;
13238;SDS011;6686;51.292;4.166;2023-05-27T11:47:06;11.00;;;5.43;;
13238;SDS011;6686;51.292;4.166;2023-05-27T11:49:53;14.55;;;6.22;;
13238;SDS011;6686;51.292;4.166;2023-05-27T11:52:54;12.40;;;5.93;;
13238;SDS011;6686;51.292;4.166;2023-05-27T11:55:40;12.73;;;5.30;;
13238;SDS011;6686;51.292;4.166;2023-05-27T11:58:25;11.93;;;5.17;;
13238;SDS011;6686;51.292;4.166;2023-05-27T12:01:11;14.17;;;5.67;;
13238;SDS011;6686;51.292;4.166;2023-05-27T12:03:57;11.87;;;5.80;;
13238;SDS011;6686;51.292;4.166;2023-05-27T12:06:44;12.97;;;5.80;;
13238;SDS011;6686;51.292;4.166;2023-05-27T12:09:29;9.63;;;5.60;;
13238;SDS011;6686;51.292;4.166;2023-05-27T12:12:18;12.43;;;5.60;;
13238;SDS011;6686;51.292;4.166;2023-05-27T12:15:02;12.68;;;6.00;;
13238;SDS011;6686;51.292;4.166;2023-05-27T12:17:48;12.63;;;5.67;;
13238;SDS011;6686;51.292;4.166;2023-05-27T12:20:34;12.37;;;4.70;;
13238;SDS011;6686;51.292;4.166;2023-05-27T12:23:20;15.85;;;5.20;;
13238;SDS011;6686;51.292;4.166;2023-05-27T12:26:06;10.50;;;5.43;;
13238;SDS011;6686;51.292;4.166;2023-05-27T12:28:52;13.60;;;5.57;;
13238;SDS011;6686;51.292;4.166;2023-05-27T12:31:38;10.55;;;4.85;;
13238;SDS011;6686;51.292;4.166;2023-05-27T12:34:24;12.33;;;5.70;;
13238;SDS011;6686;51.292;4.166;2023-05-27T12:37:10;11.20;;;4.80;;
13238;SDS011;6686;51.292;4.166;2023-05-27T12:39:55;12.90;;;5.50;;
13238;SDS011;6686;51.292;4.166;2023-05-27T12:42:41;15.93;;;5.30;;
13238;SDS011;6686;51.292;4.166;2023-05-27T12:45:27;12.93;;;5.10;;
13238;SDS011;6686;51.292;4.166;2023-05-27T12:48:14;9.43;;;5.07;;
13238;SDS011;6686;51.292;4.166;2023-05-27T12:50:59;12.83;;;5.57;;
13238;SDS011;6686;51.292;4.166;2023-05-27T12:53:45;9.70;;;4.40;;
13238;SDS011;6686;51.292;4.166;2023-05-27T12:56:31;11.27;;;5.43;;
13238;SDS011;6686;51.292;4.166;2023-05-27T12:59:17;12.98;;;5.47;;
13238;SDS011;6686;51.292;4.166;2023-05-27T13:02:03;11.53;;;6.27;;
13238;SDS011;6686;51.292;4.166;2023-05-27T13:04:49;14.23;;;6.05;;
13238;SDS011;6686;51.292;4.166;2023-05-27T13:07:35;10.93;;;4.60;;
13238;SDS011;6686;51.292;4.166;2023-05-27T13:10:21;11.70;;;5.50;;
13238;SDS011;6686;51.292;4.166;2023-05-27T13:13:07;7.35;;;4.10;;
13238;SDS011;6686;51.292;4.166;2023-05-27T13:15:53;7.87;;;4.33;;
13238;SDS011;6686;51.292;4.166;2023-05-27T13:18:38;10.50;;;5.40;;
13238;SDS011;6686;51.292;4.166;2023-05-27T13:21:24;13.10;;;5.80;;
13238;SDS011;6686;51.292;4.166;2023-05-27T13:24:10;13.10;;;5.70;;
13238;SDS011;6686;51.292;4.166;2023-05-27T13:26:57;9.30;;;4.32;;
13238;SDS011;6686;51.292;4.166;2023-05-27T13:29:42;10.48;;;4.62;;
13238;SDS011;6686;51.292;4.166;2023-05-27T13:32:28;11.02;;;4.70;;
13238;SDS011;6686;51.292;4.166;2023-05-27T13:35:14;11.23;;;4.70;;
13238;SDS011;6686;51.292;4.166;2023-05-27T13:38:00;9.13;;;5.12;;
13238;SDS011;6686;51.292;4.166;2023-05-27T13:40:46;9.95;;;4.60;;
13238;SDS011;6686;51.292;4.166;2023-05-27T13:43:32;11.43;;;4.80;;
13238;SDS011;6686;51.292;4.166;2023-05-27T13:46:17;11.43;;;5.00;;
13238;SDS011;6686;51.292;4.166;2023-05-27T13:49:03;9.30;;;4.23;;
13238;SDS011;6686;51.292;4.166;2023-05-27T13:51:49;9.73;;;4.45;;
13238;SDS011;6686;51.292;4.166;2023-05-27T13:54:35;10.63;;;4.85;;
13238;SDS011;6686;51.292;4.166;2023-05-27T13:57:20;8.43;;;4.45;;
13238;SDS011;6686;51.292;4.166;2023-05-27T14:00:06;10.37;;;4.53;;
13238;SDS011;6686;51.292;4.166;2023-05-27T14:02:53;8.13;;;3.87;;
13238;SDS011;6686;51.292;4.166;2023-05-27T14:05:39;13.52;;;4.55;;
13238;SDS011;6686;51.292;4.166;2023-05-27T14:08:24;7.45;;;3.95;;
13238;SDS011;6686;51.292;4.166;2023-05-27T14:11:10;12.40;;;4.55;;
13238;SDS011;6686;51.292;4.166;2023-05-27T14:13:56;9.90;;;4.32;;
13238;SDS011;6686;51.292;4.166;2023-05-27T14:16:42;11.93;;;4.18;;
13238;SDS011;6686;51.292;4.166;2023-05-27T14:19:28;6.95;;;4.07;;
13238;SDS011;6686;51.292;4.166;2023-05-27T14:22:13;10.80;;;4.82;;
13238;SDS011;6686;51.292;4.166;2023-05-27T14:25:00;7.55;;;4.35;;
13238;SDS011;6686;51.292;4.166;2023-05-27T14:27:46;9.85;;;4.85;;
13238;SDS011;6686;51.292;4.166;2023-05-27T14:30:32;9.63;;;4.15;;
13238;SDS011;6686;51.292;4.166;2023-05-27T14:33:17;10.43;;;4.37;;
13238;SDS011;6686;51.292;4.166;2023-05-27T14:36:03;15.20;;;4.57;;
13238;SDS011;6686;51.292;4.166;2023-05-27T14:38:48;7.53;;;3.53;;
13238;SDS011;6686;51.292;4.166;2023-05-27T14:41:34;9.47;;;4.10;;
13238;SDS011;6686;51.292;4.166;2023-05-27T14:44:20;11.07;;;4.13;;
13238;SDS011;6686;51.292;4.166;2023-05-27T14:47:06;9.98;;;4.90;;
13238;SDS011;6686;51.292;4.166;2023-05-27T14:49:52;9.65;;;4.45;;
13238;SDS011;6686;51.292;4.166;2023-05-27T14:52:37;10.15;;;4.37;;
13238;SDS011;6686;51.292;4.166;2023-05-27T14:55:23;11.25;;;4.37;;
13238;SDS011;6686;51.292;4.166;2023-05-27T14:58:09;8.70;;;4.43;;
13238;SDS011;6686;51.292;4.166;2023-05-27T15:00:55;9.38;;;4.30;;
13238;SDS011;6686;51.292;4.166;2023-05-27T15:03:41;8.38;;;4.28;;
13238;SDS011;6686;51.292;4.166;2023-05-27T15:06:27;10.00;;;4.70;;
13238;SDS011;6686;51.292;4.166;2023-05-27T15:09:13;9.38;;;4.15;;
13238;SDS011;6686;51.292;4.166;2023-05-27T15:11:59;10.85;;;4.25;;
13238;SDS011;6686;51.292;4.166;2023-05-27T15:14:44;9.68;;;4.47;;
13238;SDS011;6686;51.292;4.166;2023-05-27T15:17:30;11.20;;;4.00;;
13238;SDS011;6686;51.292;4.166;2023-05-27T15:20:16;11.45;;;4.50;;
13238;SDS011;6686;51.292;4.166;2023-05-27T15:23:02;11.50;;;4.20;;
13238;SDS011;6686;51.292;4.166;2023-05-27T15:25:48;11.02;;;4.35;;
13238;SDS011;6686;51.292;4.166;2023-05-27T15:28:33;7.18;;;3.83;;
13238;SDS011;6686;51.292;4.166;2023-05-27T15:31:19;8.93;;;4.78;;
13238;SDS011;6686;51.292;4.166;2023-05-27T15:34:04;9.27;;;4.82;;
13238;SDS011;6686;51.292;4.166;2023-05-27T15:36:50;10.38;;;4.62;;
13238;SDS011;6686;51.292;4.166;2023-05-27T15:39:37;14.57;;;4.97;;
13238;SDS011;6686;51.292;4.166;2023-05-27T15:42:23;10.87;;;4.30;;
13238;SDS011;6686;51.292;4.166;2023-05-27T15:45:09;12.73;;;5.28;;
13238;SDS011;6686;51.292;4.166;2023-05-27T15:47:55;14.00;;;5.00;;
13238;SDS011;6686;51.292;4.166;2023-05-27T15:50:40;10.27;;;4.65;;
13238;SDS011;6686;51.292;4.166;2023-05-27T15:53:26;10.80;;;4.80;;
13238;SDS011;6686;51.292;4.166;2023-05-27T15:56:12;10.95;;;4.15;;
13238;SDS011;6686;51.292;4.166;2023-05-27T15:58:58;14.07;;;5.03;;
13238;SDS011;6686;51.292;4.166;2023-05-27T16:01:44;12.68;;;5.60;;
13238;SDS011;6686;51.292;4.166;2023-05-27T16:04:30;11.43;;;5.55;;
13238;SDS011;6686;51.292;4.166;2023-05-27T16:07:15;9.82;;;4.20;;
13238;SDS011;6686;51.292;4.166;2023-05-27T16:10:01;9.15;;;4.50;;
13238;SDS011;6686;51.292;4.166;2023-05-27T16:12:46;8.02;;;4.75;;
13238;SDS011;6686;51.292;4.166;2023-05-27T16:15:32;10.88;;;4.60;;
13238;SDS011;6686;51.292;4.166;2023-05-27T16:18:19;10.97;;;4.93;;
13238;SDS011;6686;51.292;4.166;2023-05-27T16:21:05;11.75;;;4.40;;
13238;SDS011;6686;51.292;4.166;2023-05-27T16:23:51;7.70;;;4.53;;
13238;SDS011;6686;51.292;4.166;2023-05-27T16:26:37;9.20;;;4.78;;
13238;SDS011;6686;51.292;4.166;2023-05-27T16:29:23;14.87;;;4.20;;
13238;SDS011;6686;51.292;4.166;2023-05-27T16:32:09;11.50;;;4.82;;
13238;SDS011;6686;51.292;4.166;2023-05-27T16:34:56;10.98;;;5.00;;
13238;SDS011;6686;51.292;4.166;2023-05-27T16:37:42;11.55;;;4.93;;
13238;SDS011;6686;51.292;4.166;2023-05-27T16:40:28;8.75;;;4.40;;
13238;SDS011;6686;51.292;4.166;2023-05-27T16:43:14;10.20;;;4.32;;
13238;SDS011;6686;51.292;4.166;2023-05-27T16:45:59;10.20;;;4.55;;
13238;SDS011;6686;51.292;4.166;2023-05-27T16:48:45;9.27;;;4.47;;